createdAt,value
2022-10-19T00:01:36.873Z,13.23
2022-10-19T00:04:08.658Z,13.35
2022-10-19T00:07:04.572Z,13.66
2022-10-19T00:09:32.528Z,13.73
2022-10-19T00:12:00.599Z,13.71
2022-10-19T00:14:28.606Z,13.59
2022-10-19T00:16:58.229Z,13.43
2022-10-19T00:19:28.593Z,13.35
2022-10-19T00:21:57.066Z,13.13
2022-10-19T00:24:25.147Z,13.32
2022-10-19T00:26:53.427Z,13.02
2022-10-19T00:29:21.754Z,13.12
2022-10-19T00:31:51.000Z,13.15
2022-10-19T00:34:20.514Z,12.97
2022-10-19T00:36:48.796Z,12.91
2022-10-19T00:39:20.710Z,12.58
2022-10-19T00:41:49.472Z,12.83
2022-10-19T00:44:55.102Z,12.81
2022-10-19T00:47:25.762Z,12.57
2022-10-19T00:49:56.024Z,12.42
2022-10-19T00:52:27.810Z,12.56
2022-10-19T00:54:57.968Z,12.73
2022-10-19T00:57:30.611Z,12.67
2022-10-19T01:00:01.942Z,12.66
2022-10-19T01:02:30.404Z,12.66
2022-10-19T01:05:00.711Z,12.67
2022-10-19T01:07:30.357Z,12.39
2022-10-19T01:09:59.176Z,12.15
2022-10-19T01:12:57.883Z,12.54
2022-10-19T01:15:34.080Z,12.67
2022-10-19T01:18:09.083Z,12.46
2022-10-19T01:21:19.702Z,12.49
2022-10-19T01:24:35.822Z,12.42
2022-10-19T01:27:52.367Z,12.45
2022-10-19T01:30:35.511Z,12.37
2022-10-19T01:33:15.038Z,12.23
2022-10-19T01:35:48.127Z,12.39
2022-10-19T01:38:25.424Z,12.05
2022-10-19T01:40:59.911Z,12.37
2022-10-19T01:43:38.139Z,12.34
2022-10-19T01:46:13.389Z,12.25
2022-10-19T01:48:46.194Z,12.23
2022-10-19T01:51:19.251Z,11.89
2022-10-19T01:53:52.208Z,12.04
2022-10-19T01:56:25.219Z,11.91
2022-10-19T01:58:57.096Z,12.11
2022-10-19T02:01:31.640Z,11.77
2022-10-19T02:04:01.145Z,12.07
2022-10-19T02:06:29.599Z,11.91
2022-10-19T02:08:58.244Z,11.67
2022-10-19T02:11:26.791Z,11.70
2022-10-19T02:13:59.755Z,11.91
2022-10-19T02:16:34.643Z,11.94
2022-10-19T02:19:04.787Z,11.82
2022-10-19T02:21:34.285Z,11.80
2022-10-19T02:24:03.508Z,11.87
2022-10-19T02:26:32.521Z,11.78
2022-10-19T02:29:04.365Z,12.09
2022-10-19T02:31:35.115Z,12.14
2022-10-19T02:34:08.031Z,11.85
2022-10-19T02:36:38.695Z,12.06
2022-10-19T02:39:08.814Z,12.16
2022-10-19T02:41:41.372Z,12.03
2022-10-19T02:44:16.811Z,12.14
2022-10-19T02:46:51.355Z,12.10
2022-10-19T02:49:21.455Z,12.27
2022-10-19T02:52:03.536Z,12.47
2022-10-19T02:54:32.494Z,12.38
2022-10-19T02:57:01.555Z,12.03
2022-10-19T02:59:30.608Z,12.39
2022-10-19T03:02:02.087Z,12.28
2022-10-19T03:04:30.504Z,12.19
2022-10-19T03:06:59.389Z,12.31
2022-10-19T03:09:27.815Z,11.87
2022-10-19T03:12:05.243Z,11.85
2022-10-19T03:14:35.364Z,11.72
2022-10-19T03:17:05.682Z,12.04
2022-10-19T03:19:35.633Z,11.78
2022-10-19T03:22:04.281Z,11.63
2022-10-19T03:24:33.171Z,11.64
2022-10-19T03:27:01.792Z,11.83
2022-10-19T03:29:30.216Z,11.94
2022-10-19T03:31:58.463Z,11.53
2022-10-19T03:34:28.297Z,11.74
2022-10-19T03:36:56.810Z,11.47
2022-10-19T03:39:24.985Z,11.59
2022-10-19T03:41:53.216Z,11.74
2022-10-19T03:44:21.684Z,11.54
2022-10-19T03:46:49.827Z,11.45
2022-10-19T03:49:17.918Z,11.46
2022-10-19T03:51:47.779Z,11.67
2022-10-19T03:54:17.686Z,11.33
2022-10-19T03:56:45.851Z,11.50
2022-10-19T03:59:16.031Z,11.37
2022-10-19T04:01:46.272Z,11.58
2022-10-19T04:04:16.392Z,11.39
2022-10-19T04:06:48.254Z,10.97
2022-10-19T04:09:18.166Z,11.33
2022-10-19T04:11:46.564Z,11.30
2022-10-19T04:14:26.750Z,11.46
2022-10-19T04:17:01.425Z,11.34
2022-10-19T04:19:29.402Z,11.26
2022-10-19T04:21:59.168Z,11.35
2022-10-19T04:24:27.168Z,11.25
2022-10-19T04:26:56.665Z,11.15
2022-10-19T04:29:29.672Z,11.52
2022-10-19T04:31:59.519Z,11.54
2022-10-19T04:34:27.567Z,11.48
2022-10-19T04:36:59.158Z,11.68
2022-10-19T04:39:28.695Z,11.60
2022-10-19T04:41:56.754Z,11.42
2022-10-19T04:44:24.942Z,11.54
2022-10-19T04:46:52.999Z,11.74
2022-10-19T04:49:21.167Z,11.67
2022-10-19T04:51:49.256Z,11.44
2022-10-19T04:54:17.219Z,11.44
2022-10-19T04:56:46.850Z,11.29
2022-10-19T04:59:14.885Z,10.99
2022-10-19T05:01:46.491Z,11.07
2022-10-19T05:04:15.287Z,11.20
2022-10-19T05:06:43.158Z,11.08
2022-10-19T05:09:10.936Z,10.79
2022-10-19T05:11:38.763Z,10.84
2022-10-19T05:14:08.013Z,10.92
2022-10-19T05:16:35.958Z,10.83
2022-10-19T05:19:03.883Z,10.98
2022-10-19T05:21:31.691Z,10.90
2022-10-19T05:23:59.628Z,10.90
2022-10-19T05:26:29.642Z,10.84
2022-10-19T05:29:01.465Z,11.01
2022-10-19T05:31:32.816Z,10.78
2022-10-19T05:34:03.083Z,10.79
2022-10-19T05:36:34.648Z,10.77
2022-10-19T05:39:05.990Z,10.82
2022-10-19T05:41:34.037Z,11.06
2022-10-19T05:44:03.375Z,10.97
2022-10-19T05:46:33.651Z,11.24
2022-10-19T05:49:05.068Z,11.03
2022-10-19T05:51:33.157Z,11.32
2022-10-19T05:54:01.153Z,11.14
2022-10-19T05:56:30.599Z,11.20
2022-10-19T05:58:59.760Z,11.40
2022-10-19T06:01:29.082Z,11.41
2022-10-19T06:03:59.809Z,11.15
2022-10-19T06:06:28.440Z,11.34
2022-10-19T06:08:58.915Z,11.24
2022-10-19T06:11:29.075Z,11.16
2022-10-19T06:13:58.840Z,11.17
2022-10-19T06:16:27.889Z,11.28
2022-10-19T06:18:56.591Z,11.32
2022-10-19T06:21:28.286Z,11.28
2022-10-19T06:23:57.772Z,11.37
2022-10-19T06:26:26.733Z,11.40
2022-10-19T06:28:56.500Z,11.43
2022-10-19T06:31:24.629Z,11.36
2022-10-19T06:33:52.566Z,11.26
2022-10-19T06:36:23.023Z,11.45
2022-10-19T06:38:53.145Z,11.47
2022-10-19T06:41:21.624Z,11.30
2022-10-19T06:43:53.767Z,11.23
2022-10-19T06:46:23.544Z,11.31
2022-10-19T06:48:52.519Z,11.43
2022-10-19T06:51:20.741Z,11.45
2022-10-19T06:53:54.170Z,11.81
2022-10-19T06:56:25.548Z,11.51
2022-10-19T06:58:53.491Z,11.54
2022-10-19T07:01:21.466Z,11.76
2022-10-19T07:03:51.681Z,11.69
2022-10-19T07:06:19.732Z,11.64
2022-10-19T07:08:47.674Z,11.65
2022-10-19T07:11:19.310Z,11.85
2022-10-19T07:13:48.750Z,11.80
2022-10-19T07:16:21.269Z,11.50
2022-10-19T07:18:50.900Z,11.61
2022-10-19T07:21:20.513Z,11.51
2022-10-19T07:23:49.620Z,11.41
2022-10-19T07:26:21.419Z,11.43
2022-10-19T07:28:52.191Z,11.25
2022-10-19T07:31:22.013Z,11.00
2022-10-19T07:33:53.574Z,11.19
2022-10-19T07:36:22.053Z,10.70
2022-10-19T07:38:50.269Z,10.70
2022-10-19T07:41:20.265Z,10.84
2022-10-19T07:43:50.770Z,10.97
2022-10-19T07:46:21.087Z,10.76
2022-10-19T07:48:48.951Z,10.72
2022-10-19T07:51:18.255Z,10.74
2022-10-19T07:53:47.240Z,10.84
2022-10-19T07:56:17.328Z,10.85
2022-10-19T07:58:45.467Z,10.93
2022-10-19T08:01:16.885Z,10.88
2022-10-19T08:06:33.226Z,11.42
2022-10-19T08:09:01.466Z,11.29
2022-10-19T08:11:32.545Z,11.45
2022-10-19T08:14:02.832Z,11.76
2022-10-19T08:16:34.017Z,11.80
2022-10-19T08:19:03.693Z,12.10
2022-10-19T08:21:32.460Z,12.11
2022-10-19T08:24:00.353Z,11.94
2022-10-19T08:26:30.044Z,12.34
2022-10-19T08:29:00.935Z,12.69
2022-10-19T08:31:30.785Z,12.60
2022-10-19T08:34:06.124Z,12.51
2022-10-19T08:36:35.539Z,12.50
2022-10-19T08:39:05.153Z,12.77
2022-10-19T08:41:36.712Z,12.61
2022-10-19T08:44:22.455Z,12.62
2022-10-19T08:46:57.388Z,12.76
2022-10-19T08:49:30.032Z,12.61
2022-10-19T08:52:02.229Z,12.37
2022-10-19T08:54:39.074Z,12.19
2022-10-19T08:57:16.910Z,12.36
2022-10-19T08:59:53.288Z,12.28
2022-10-19T09:02:36.105Z,12.42
2022-10-19T09:05:15.525Z,12.38
2022-10-19T09:07:45.899Z,12.28
2022-10-19T09:10:22.597Z,12.40
2022-10-19T09:12:58.705Z,12.57
2022-10-19T09:16:03.575Z,12.67
2022-10-19T09:18:47.338Z,12.57
2022-10-19T09:21:31.083Z,12.57
2022-10-19T09:24:29.945Z,12.72
2022-10-19T09:27:00.573Z,12.57
2022-10-19T09:29:38.278Z,12.64
2022-10-19T09:32:13.736Z,12.76
2022-10-19T09:34:45.640Z,12.94
2022-10-19T09:37:26.813Z,13.02
2022-10-19T09:39:56.158Z,13.13
2022-10-19T09:42:30.596Z,13.26
2022-10-19T09:45:01.021Z,13.34
2022-10-19T09:47:36.427Z,13.44
2022-10-19T09:50:15.366Z,13.52
2022-10-19T09:52:46.071Z,14.34
2022-10-19T09:55:37.397Z,14.04
2022-10-19T09:58:16.851Z,13.76
2022-10-19T10:00:46.888Z,14.01
2022-10-19T10:03:27.387Z,13.97
2022-10-19T10:05:57.541Z,13.98
2022-10-19T10:08:30.579Z,14.21
2022-10-19T10:11:07.133Z,14.01
2022-10-19T10:13:39.080Z,14.07
2022-10-19T10:16:19.277Z,14.05
2022-10-19T10:18:55.324Z,14.11
2022-10-19T10:21:27.221Z,13.90
2022-10-19T10:24:05.840Z,14.23
2022-10-19T10:26:39.961Z,14.64
2022-10-19T10:29:20.071Z,15.01
2022-10-19T10:31:51.186Z,15.11
2022-10-19T10:34:37.459Z,15.18
2022-10-19T10:37:23.037Z,15.64
2022-10-19T10:39:56.827Z,15.74
2022-10-19T10:42:31.335Z,15.68
2022-10-19T10:45:00.777Z,16.03
2022-10-19T10:47:34.529Z,16.16
2022-10-19T10:50:06.462Z,15.76
2022-10-19T10:52:38.539Z,15.96
2022-10-19T10:55:45.757Z,16.04
2022-10-19T10:58:19.482Z,16.42
2022-10-19T11:00:49.692Z,16.34
2022-10-19T11:03:24.241Z,16.15
2022-10-19T11:06:00.244Z,16.20
2022-10-19T11:08:33.112Z,16.12
2022-10-19T11:11:13.967Z,16.63
2022-10-19T11:13:48.892Z,16.84
2022-10-19T11:16:19.210Z,16.88
2022-10-19T11:18:53.025Z,16.84
2022-10-19T11:21:27.626Z,16.60
2022-10-19T11:24:06.463Z,16.51
2022-10-19T11:26:49.474Z,16.45
2022-10-19T11:29:30.429Z,16.45
2022-10-19T11:31:59.018Z,16.37
2022-10-19T11:34:47.275Z,16.37
2022-10-19T11:37:27.042Z,16.89
2022-10-19T11:40:06.224Z,16.59
2022-10-19T11:45:33.183Z,16.64
2022-10-19T11:48:21.426Z,16.55
2022-10-19T11:50:58.951Z,16.87
2022-10-19T11:53:49.044Z,16.74
2022-10-19T11:56:39.226Z,16.81
2022-10-19T11:59:22.465Z,16.80
2022-10-19T12:01:59.431Z,16.71
2022-10-19T12:04:51.658Z,16.81
2022-10-19T12:07:37.815Z,17.07
2022-10-19T12:10:17.281Z,17.23
2022-10-19T12:12:49.638Z,17.39
2022-10-19T12:15:30.807Z,17.00
2022-10-19T12:18:03.618Z,17.11
2022-10-19T12:20:35.820Z,17.03
2022-10-19T12:23:22.565Z,17.45
2022-10-19T12:25:51.843Z,17.13
2022-10-19T12:28:23.783Z,16.93
2022-10-19T12:30:54.204Z,16.99
2022-10-19T12:33:26.583Z,17.48
2022-10-19T12:36:06.151Z,17.23
2022-10-19T12:38:46.077Z,16.95
2022-10-19T12:41:27.256Z,17.05
2022-10-19T12:44:07.618Z,17.34
2022-10-19T12:46:42.742Z,17.21
2022-10-19T12:49:48.782Z,17.49
2022-10-19T12:52:35.597Z,17.71
2022-10-19T12:55:13.609Z,17.77
2022-10-19T12:57:47.969Z,17.62
2022-10-19T13:00:24.968Z,17.23
2022-10-19T13:03:03.010Z,17.08
2022-10-19T13:05:32.465Z,16.75
2022-10-19T13:08:03.212Z,16.55
2022-10-19T13:10:33.114Z,16.75
2022-10-19T13:13:03.031Z,16.61
2022-10-19T13:15:58.931Z,16.63
2022-10-19T13:19:09.301Z,16.81
2022-10-19T13:22:03.806Z,16.89
2022-10-19T13:24:35.728Z,17.00
2022-10-19T13:27:26.805Z,17.37
2022-10-19T13:29:55.005Z,17.22
2022-10-19T13:32:44.303Z,17.05
2022-10-19T13:35:25.019Z,17.13
2022-10-19T13:38:26.419Z,17.18
2022-10-19T13:41:02.298Z,16.78
2022-10-19T13:43:33.987Z,16.78
2022-10-19T13:46:10.160Z,16.83
2022-10-19T13:49:17.016Z,16.82
2022-10-19T13:51:57.034Z,17.01
2022-10-19T13:54:43.139Z,17.19
2022-10-19T13:57:22.903Z,17.43
2022-10-19T14:00:15.143Z,17.27
2022-10-19T14:03:22.465Z,16.73
2022-10-19T14:06:16.248Z,17.02
2022-10-19T14:09:16.712Z,16.95
2022-10-19T14:11:51.248Z,16.90
2022-10-19T14:14:21.817Z,16.90
2022-10-19T14:16:54.458Z,16.98
2022-10-19T14:19:27.842Z,16.97
2022-10-19T14:21:57.673Z,16.93
2022-10-19T14:24:32.366Z,17.01
2022-10-19T14:27:04.397Z,17.11
2022-10-19T14:29:36.642Z,17.04
2022-10-19T14:32:05.127Z,16.60
2022-10-19T14:34:32.943Z,16.82
2022-10-19T14:37:00.804Z,16.70
2022-10-19T14:39:35.493Z,16.47
2022-10-19T14:42:11.469Z,16.36
2022-10-19T14:44:41.437Z,16.40
2022-10-19T14:47:20.294Z,16.51
2022-10-19T14:50:05.229Z,16.27
2022-10-19T14:52:40.213Z,16.41
2022-10-19T14:55:15.429Z,16.33
2022-10-19T14:57:49.579Z,16.50
2022-10-19T15:00:20.977Z,16.55
2022-10-19T15:02:57.427Z,16.18
2022-10-19T15:05:28.038Z,16.04
2022-10-19T15:07:56.730Z,15.95
2022-10-19T15:10:30.310Z,15.99
2022-10-19T15:13:06.015Z,15.76
2022-10-19T15:15:36.229Z,15.73
2022-10-19T15:18:06.322Z,15.69
2022-10-19T15:20:44.281Z,15.61
2022-10-19T15:23:34.912Z,15.51
2022-10-19T15:26:09.570Z,15.62
2022-10-19T15:28:42.355Z,15.52
2022-10-19T15:31:16.925Z,15.45
2022-10-19T15:33:48.748Z,15.31
2022-10-19T15:36:19.467Z,15.12
2022-10-19T15:38:48.868Z,15.25
2022-10-19T15:41:20.630Z,15.16
2022-10-19T15:43:51.618Z,15.15
2022-10-19T15:46:32.514Z,15.20
2022-10-19T15:49:04.510Z,15.28
2022-10-19T15:51:47.464Z,15.16
2022-10-19T15:54:17.619Z,14.99
2022-10-19T15:56:48.209Z,14.99
2022-10-19T15:59:20.120Z,14.80
2022-10-19T16:01:53.766Z,14.75
2022-10-19T16:04:24.351Z,14.54
2022-10-19T16:06:52.613Z,14.42
2022-10-19T16:09:23.016Z,14.43
2022-10-19T16:11:56.784Z,14.31
2022-10-19T16:14:28.456Z,13.95
2022-10-19T16:17:00.759Z,14.03
2022-10-19T16:19:31.028Z,13.62
2022-10-19T16:21:59.334Z,13.85
2022-10-19T16:24:29.145Z,13.74
2022-10-19T16:27:00.207Z,13.77
2022-10-19T16:29:30.439Z,13.98
2022-10-19T16:31:58.939Z,13.51
2022-10-19T16:34:27.961Z,13.78
2022-10-19T16:36:56.145Z,13.97
2022-10-19T16:39:25.761Z,13.67
2022-10-19T16:41:54.824Z,13.59
2022-10-19T16:44:23.264Z,13.18
2022-10-19T16:46:52.735Z,13.30
2022-10-19T16:49:21.069Z,13.34
2022-10-19T16:51:51.949Z,13.10
2022-10-19T16:54:23.064Z,13.03
2022-10-19T16:56:51.695Z,12.91
2022-10-19T16:59:20.778Z,13.01
2022-10-19T17:01:50.232Z,12.91
2022-10-19T17:04:20.176Z,12.69
2022-10-19T17:06:48.625Z,12.60
2022-10-19T17:09:40.807Z,12.40
2022-10-19T17:12:10.499Z,12.42
2022-10-19T17:14:48.378Z,12.26
2022-10-19T17:17:25.507Z,12.09
2022-10-19T17:20:07.505Z,12.15
2022-10-19T17:22:38.122Z,12.08
2022-10-19T17:25:09.535Z,11.75
2022-10-19T17:27:47.117Z,11.93
2022-10-19T17:30:18.989Z,12.04
2022-10-19T17:32:55.272Z,12.00
2022-10-19T17:35:25.291Z,11.88
2022-10-19T17:37:53.876Z,11.87
2022-10-19T17:40:21.902Z,11.69
2022-10-19T17:48:52.991Z,11.67
2022-10-19T17:51:55.281Z,11.23
2022-10-19T17:54:29.661Z,11.31
2022-10-19T17:56:59.578Z,11.22
2022-10-19T17:59:40.637Z,11.23
2022-10-19T18:09:02.921Z,11.25
2022-10-19T18:11:36.369Z,11.39
2022-10-19T18:14:06.089Z,11.43
2022-10-19T18:16:39.987Z,11.28
2022-10-19T18:19:09.919Z,11.39
2022-10-19T18:21:42.613Z,11.40
2022-10-19T18:24:16.929Z,11.12
2022-10-19T18:26:45.496Z,11.41
2022-10-19T18:29:20.494Z,11.34
2022-10-19T18:31:52.477Z,11.46
2022-10-19T18:34:25.239Z,11.19
2022-10-19T18:36:54.129Z,11.35
2022-10-19T18:39:24.165Z,11.33
2022-10-19T18:41:55.188Z,10.92
2022-10-19T18:44:27.255Z,10.80
2022-10-19T18:46:57.294Z,10.88
2022-10-19T18:49:26.473Z,11.23
2022-10-19T18:51:55.851Z,11.15
2022-10-19T18:54:28.027Z,10.90
2022-10-19T18:56:56.454Z,10.63
2022-10-19T18:59:25.223Z,10.77
2022-10-19T19:01:53.540Z,10.87
2022-10-19T19:04:46.332Z,10.84
2022-10-19T19:07:14.565Z,10.82
2022-10-19T19:13:55.507Z,10.55
2022-10-19T19:16:25.062Z,10.53
2022-10-19T19:18:56.968Z,10.51
2022-10-19T19:21:27.250Z,10.26
2022-10-19T19:23:59.180Z,10.29
2022-10-19T19:26:29.890Z,10.46
2022-10-19T19:28:59.914Z,10.12
2022-10-19T19:32:08.670Z,10.37
2022-10-19T19:34:36.970Z,10.30
2022-10-19T19:48:29.316Z,10.07
2022-10-19T19:50:58.093Z,9.93
2022-10-19T19:53:37.076Z,10.06
2022-10-19T19:59:13.210Z,9.71
2022-10-19T20:01:41.330Z,10.05
2022-10-19T20:04:11.697Z,10.11
2022-10-19T20:06:40.896Z,10.24
2022-10-19T20:09:11.040Z,9.94
2022-10-19T20:14:42.123Z,9.90
2022-10-19T20:17:10.233Z,9.99
2022-10-19T20:19:39.842Z,10.00
2022-10-19T20:22:08.039Z,10.05
2022-10-19T20:28:20.552Z,9.81
2022-10-19T20:31:11.970Z,9.97
2022-10-19T20:33:41.685Z,10.12
2022-10-19T20:36:14.065Z,10.03
2022-10-19T20:38:47.354Z,9.83
2022-10-19T20:41:15.704Z,9.78
2022-10-19T20:43:43.706Z,9.79
2022-10-19T20:46:13.657Z,9.71
2022-10-19T20:48:41.950Z,9.82
2022-10-19T20:51:16.374Z,9.80
2022-10-19T20:53:46.398Z,9.64
2022-10-19T20:56:16.932Z,9.72
2022-10-19T20:58:45.575Z,9.78
2022-10-19T21:01:15.356Z,9.69
2022-10-19T21:03:47.674Z,9.61
2022-10-19T21:06:16.886Z,9.66
2022-10-19T21:08:44.793Z,9.61
2022-10-19T21:11:14.260Z,9.69
2022-10-19T21:13:42.462Z,9.89
2022-10-19T21:16:11.653Z,9.84
2022-10-19T21:18:40.112Z,9.78
2022-10-19T21:21:13.105Z,9.85
2022-10-19T21:23:42.780Z,9.89
2022-10-19T21:26:10.716Z,9.61
2022-10-19T21:28:39.886Z,9.63
2022-10-19T21:31:10.686Z,9.90
2022-10-19T21:33:38.570Z,9.62
2022-10-19T21:36:08.459Z,9.49
2022-10-19T21:38:36.733Z,9.76
2022-10-19T21:41:07.838Z,9.77
2022-10-19T21:43:36.253Z,9.54
2022-10-19T21:46:05.278Z,9.70
2022-10-19T21:48:33.900Z,9.72
2022-10-19T21:51:11.024Z,9.67
2022-10-19T21:53:38.833Z,9.67
2022-10-19T21:56:08.331Z,9.37
2022-10-19T21:58:36.318Z,9.39
2022-10-19T22:01:08.583Z,9.32
2022-10-19T22:03:36.590Z,9.22
2022-10-19T22:06:04.630Z,9.35
2022-10-19T22:09:00.150Z,9.18
2022-10-19T22:11:32.420Z,9.41
2022-10-19T22:14:02.246Z,9.50
2022-10-19T22:16:31.441Z,9.17
2022-10-19T22:18:59.353Z,9.35
2022-10-19T22:21:29.862Z,9.41
2022-10-19T22:23:59.134Z,9.53
2022-10-19T22:26:28.520Z,9.57
2022-10-19T22:28:58.747Z,9.18
2022-10-19T22:31:27.483Z,9.34
2022-10-19T22:33:55.660Z,9.48
2022-10-19T22:36:23.427Z,9.32
2022-10-19T22:38:51.165Z,8.87
2022-10-19T22:41:18.984Z,8.94
2022-10-19T22:43:46.881Z,9.09
2022-10-19T22:46:16.041Z,9.16
2022-10-19T22:48:43.829Z,9.11
2022-10-19T22:51:11.709Z,9.17
2022-10-19T22:53:39.539Z,9.16
2022-10-19T22:56:08.399Z,9.04
2022-10-19T22:58:36.194Z,9.24
2022-10-19T23:01:06.095Z,9.21
2022-10-19T23:03:35.685Z,9.22
2022-10-19T23:06:04.101Z,9.12
2022-10-19T23:08:32.177Z,9.13
2022-10-19T23:11:00.042Z,9.17
2022-10-19T23:13:28.246Z,9.27
2022-10-19T23:15:56.051Z,9.19
2022-10-19T23:18:23.921Z,9.20
2022-10-19T23:20:57.175Z,9.14
2022-10-19T23:23:25.602Z,9.15
2022-10-19T23:26:04.923Z,8.99
2022-10-19T23:28:34.346Z,8.84
2022-10-19T23:31:06.035Z,9.06
2022-10-19T23:33:34.329Z,9.06
2022-10-19T23:36:09.245Z,9.09
2022-10-19T23:38:37.402Z,8.84
2022-10-19T23:41:05.534Z,8.84
2022-10-19T23:43:33.985Z,8.86
2022-10-19T23:46:01.958Z,8.56
2022-10-19T23:48:30.176Z,8.52
2022-10-19T23:50:59.982Z,8.70
2022-10-19T23:53:30.123Z,8.42
2022-10-19T23:56:01.496Z,8.45
2022-10-19T23:58:30.412Z,8.36
